createdAt,value
2022-11-08T00:00:06.327Z,1006.49
2022-11-08T00:01:07.698Z,1006.50
2022-11-08T00:02:06.397Z,1006.39
2022-11-08T00:03:06.451Z,1006.49
2022-11-08T00:04:06.209Z,1006.46
2022-11-08T00:05:06.229Z,1006.45
2022-11-08T00:06:06.511Z,1006.45
2022-11-08T00:07:06.252Z,1006.47
2022-11-08T00:08:06.176Z,1006.49
2022-11-08T00:09:06.142Z,1006.48
2022-11-08T00:10:07.216Z,1006.48
2022-11-08T00:11:06.352Z,1006.48
2022-11-08T00:12:06.160Z,1006.49
2022-11-08T00:13:06.132Z,1006.46
2022-11-08T00:14:06.315Z,1006.41
2022-11-08T00:15:06.235Z,1006.44
2022-11-08T00:16:06.153Z,1006.44
2022-11-08T00:17:06.034Z,1006.39
2022-11-08T00:18:06.052Z,1006.37
2022-11-08T00:19:06.031Z,1006.41
2022-11-08T00:20:05.987Z,1006.41
2022-11-08T00:21:06.002Z,1006.39
2022-11-08T00:22:05.983Z,1006.42
2022-11-08T00:23:06.142Z,1006.45
2022-11-08T00:24:06.170Z,1006.46
2022-11-08T00:25:06.019Z,1006.48
2022-11-08T00:26:05.946Z,1006.48
2022-11-08T00:27:05.929Z,1006.50
2022-11-08T00:28:05.942Z,1006.46
2022-11-08T00:29:05.866Z,1006.49
2022-11-08T00:30:05.898Z,1006.49
2022-11-08T00:31:06.738Z,1006.50
2022-11-08T00:32:05.917Z,1006.48
2022-11-08T00:33:05.830Z,1006.45
2022-11-08T00:34:06.718Z,1006.45
2022-11-08T00:35:05.860Z,1006.48
2022-11-08T00:36:06.775Z,1006.46
2022-11-08T00:37:05.802Z,1006.44
2022-11-08T00:38:05.797Z,1006.47
2022-11-08T00:39:05.791Z,1006.50
2022-11-08T00:40:05.786Z,1006.47
2022-11-08T00:41:05.751Z,1006.46
2022-11-08T00:42:05.842Z,1006.46
2022-11-08T00:43:05.753Z,1006.46
2022-11-08T00:44:05.749Z,1006.48
2022-11-08T00:45:05.711Z,1006.48
2022-11-08T00:46:05.652Z,1006.49
2022-11-08T00:47:05.741Z,1006.45
2022-11-08T00:48:05.742Z,1006.46
2022-11-08T00:49:05.643Z,1006.44
2022-11-08T00:50:05.702Z,1006.46
2022-11-08T00:51:05.613Z,1006.44
2022-11-08T00:52:05.672Z,1006.43
2022-11-08T00:53:06.669Z,1006.44
2022-11-08T00:54:05.707Z,1006.45
2022-11-08T00:55:05.652Z,1006.42
2022-11-08T00:56:05.559Z,1006.42
2022-11-08T00:57:05.562Z,1006.38
2022-11-08T00:58:05.551Z,1006.39
2022-11-08T00:59:05.514Z,1006.39
2022-11-08T01:00:05.566Z,1006.42
2022-11-08T01:01:05.557Z,1006.41
2022-11-08T01:02:05.572Z,1006.45
2022-11-08T01:03:05.442Z,1006.45
2022-11-08T01:04:05.424Z,1006.47
2022-11-08T01:05:06.465Z,1006.49
2022-11-08T01:06:06.535Z,1006.46
2022-11-08T01:07:05.403Z,1006.45
2022-11-08T01:08:05.384Z,1006.40
2022-11-08T01:09:06.316Z,1006.38
2022-11-08T01:10:05.366Z,1006.37
2022-11-08T01:11:05.384Z,1006.40
2022-11-08T01:12:05.317Z,1006.47
2022-11-08T01:13:05.353Z,1006.42
2022-11-08T01:14:05.547Z,1006.41
2022-11-08T01:15:05.359Z,1006.36
2022-11-08T01:16:05.280Z,1006.37
2022-11-08T01:17:05.286Z,1006.40
2022-11-08T01:18:05.290Z,1006.40
2022-11-08T01:19:05.267Z,1006.35
2022-11-08T01:20:05.248Z,1006.41
2022-11-08T01:21:05.198Z,1006.41
2022-11-08T01:22:06.450Z,1006.36
2022-11-08T01:23:05.191Z,1006.39
2022-11-08T01:24:05.264Z,1006.35
2022-11-08T01:25:05.179Z,1006.40
2022-11-08T01:26:05.148Z,1006.36
2022-11-08T01:27:05.973Z,1006.35
2022-11-08T01:28:05.259Z,1006.38
2022-11-08T01:29:06.297Z,1006.33
2022-11-08T01:30:05.238Z,1006.31
2022-11-08T01:31:05.569Z,1006.35
2022-11-08T01:32:05.082Z,1006.33
2022-11-08T01:33:05.115Z,1006.40
2022-11-08T01:34:05.448Z,1006.38
2022-11-08T01:35:05.084Z,1006.43
2022-11-08T01:36:05.002Z,1006.43
2022-11-08T01:37:04.993Z,1006.40
2022-11-08T01:38:05.055Z,1006.38
2022-11-08T01:39:05.054Z,1006.36
2022-11-08T01:40:05.002Z,1006.36
2022-11-08T01:41:04.950Z,1006.37
2022-11-08T01:42:05.391Z,1006.36
2022-11-08T01:43:04.942Z,1006.29
2022-11-08T01:44:04.891Z,1006.37
2022-11-08T01:45:04.902Z,1006.29
2022-11-08T01:46:04.876Z,1006.30
2022-11-08T01:47:04.871Z,1006.29
2022-11-08T01:48:04.852Z,1006.32
2022-11-08T01:49:04.925Z,1006.34
2022-11-08T01:50:04.833Z,1006.34
2022-11-08T01:51:04.847Z,1006.35
2022-11-08T01:52:04.894Z,1006.32
2022-11-08T01:53:04.882Z,1006.35
2022-11-08T01:54:04.823Z,1006.35
2022-11-08T01:55:04.795Z,1006.37
2022-11-08T01:56:04.828Z,1006.32
2022-11-08T01:57:04.731Z,1006.33
2022-11-08T01:58:04.760Z,1006.33
2022-11-08T01:59:04.715Z,1006.36
2022-11-08T02:00:04.980Z,1006.35
2022-11-08T02:01:04.763Z,1006.33
2022-11-08T02:02:04.703Z,1006.35
2022-11-08T02:03:04.647Z,1006.33
2022-11-08T02:04:04.745Z,1006.33
2022-11-08T02:05:04.658Z,1006.35
2022-11-08T02:06:04.747Z,1006.28
2022-11-08T02:07:04.636Z,1006.32
2022-11-08T02:08:04.620Z,1006.34
2022-11-08T02:09:04.641Z,1006.36
2022-11-08T02:10:04.980Z,1006.30
2022-11-08T02:11:04.600Z,1006.29
2022-11-08T02:12:04.539Z,1006.30
2022-11-08T02:13:05.504Z,1006.29
2022-11-08T02:14:04.559Z,1006.29
2022-11-08T02:15:04.502Z,1006.28
2022-11-08T02:16:04.500Z,1006.28
2022-11-08T02:17:04.480Z,1006.28
2022-11-08T02:18:04.472Z,1006.27
2022-11-08T02:19:04.464Z,1006.28
2022-11-08T02:20:04.480Z,1006.27
2022-11-08T02:21:04.436Z,1006.29
2022-11-08T02:22:04.410Z,1006.31
2022-11-08T02:23:04.422Z,1006.32
2022-11-08T02:24:04.415Z,1006.28
2022-11-08T02:25:04.373Z,1006.28
2022-11-08T02:26:04.390Z,1006.27
2022-11-08T02:27:04.345Z,1006.29
2022-11-08T02:28:04.402Z,1006.23
2022-11-08T02:29:04.413Z,1006.24
2022-11-08T02:30:04.332Z,1006.24
2022-11-08T02:31:04.306Z,1006.27
2022-11-08T02:32:04.309Z,1006.23
2022-11-08T02:33:05.265Z,1006.22
2022-11-08T02:34:04.413Z,1006.26
2022-11-08T02:35:04.415Z,1006.24
2022-11-08T02:36:04.237Z,1006.26
2022-11-08T02:37:04.242Z,1006.20
2022-11-08T02:38:04.231Z,1006.23
2022-11-08T02:39:04.306Z,1006.24
2022-11-08T02:40:04.229Z,1006.26
2022-11-08T02:41:04.165Z,1006.26
2022-11-08T02:42:04.178Z,1006.22
2022-11-08T02:43:04.131Z,1006.20
2022-11-08T02:44:04.199Z,1006.18
2022-11-08T02:45:04.133Z,1006.18
2022-11-08T02:46:04.129Z,1006.19
2022-11-08T02:47:04.107Z,1006.24
2022-11-08T02:48:04.098Z,1006.26
2022-11-08T02:49:04.050Z,1006.24
2022-11-08T02:50:04.038Z,1006.24
2022-11-08T02:51:05.067Z,1006.20
2022-11-08T02:52:04.131Z,1006.22
2022-11-08T02:53:04.016Z,1006.20
2022-11-08T02:54:04.019Z,1006.19
2022-11-08T02:55:03.984Z,1006.17
2022-11-08T02:56:05.103Z,1006.18
2022-11-08T02:57:04.101Z,1006.17
2022-11-08T02:58:03.961Z,1006.22
2022-11-08T02:59:03.972Z,1006.21
2022-11-08T03:00:03.970Z,1006.24
2022-11-08T03:01:04.063Z,1006.18
2022-11-08T03:02:04.041Z,1006.25
2022-11-08T03:03:04.940Z,1006.24
2022-11-08T03:04:03.870Z,1006.16
2022-11-08T03:05:03.958Z,1006.19
2022-11-08T03:06:03.877Z,1006.14
2022-11-08T03:07:03.929Z,1006.20
2022-11-08T03:08:03.812Z,1006.19
2022-11-08T03:09:03.826Z,1006.14
2022-11-08T03:10:03.827Z,1006.13
2022-11-08T03:11:03.794Z,1006.15
2022-11-08T03:12:03.820Z,1006.10
2022-11-08T03:13:03.736Z,1006.15
2022-11-08T03:14:03.778Z,1006.16
2022-11-08T03:15:03.746Z,1006.16
2022-11-08T03:16:03.783Z,1006.12
2022-11-08T03:17:03.735Z,1006.12
2022-11-08T03:18:03.724Z,1006.18
2022-11-08T03:19:03.674Z,1006.10
2022-11-08T03:20:03.662Z,1006.07
2022-11-08T03:21:03.653Z,1006.05
2022-11-08T03:22:03.653Z,1006.08
2022-11-08T03:23:03.644Z,1006.09
2022-11-08T03:24:03.614Z,1006.13
2022-11-08T03:25:03.635Z,1006.05
2022-11-08T03:26:03.590Z,1006.09
2022-11-08T03:27:03.575Z,1006.11
2022-11-08T03:28:03.647Z,1006.11
2022-11-08T03:29:03.605Z,1006.10
2022-11-08T03:30:03.530Z,1006.05
2022-11-08T03:31:03.515Z,1006.10
2022-11-08T03:32:03.540Z,1006.07
2022-11-08T03:33:03.533Z,1006.09
2022-11-08T03:34:03.508Z,1006.11
2022-11-08T03:35:03.490Z,1006.10
2022-11-08T03:36:03.487Z,1006.10
2022-11-08T03:37:03.478Z,1006.12
2022-11-08T03:38:03.439Z,1006.12
2022-11-08T03:39:03.436Z,1006.11
2022-11-08T03:40:03.437Z,1006.12
2022-11-08T03:41:03.424Z,1006.11
2022-11-08T03:42:03.656Z,1006.05
2022-11-08T03:43:03.370Z,1006.10
2022-11-08T03:44:03.369Z,1006.06
2022-11-08T03:45:03.348Z,1006.09
2022-11-08T03:46:03.387Z,1006.08
2022-11-08T03:47:03.333Z,1006.09
2022-11-08T03:48:03.321Z,1006.08
2022-11-08T03:49:03.387Z,1006.07
2022-11-08T03:50:03.361Z,1006.10
2022-11-08T03:51:03.261Z,1006.10
2022-11-08T03:52:03.278Z,1006.09
2022-11-08T03:53:03.267Z,1006.11
2022-11-08T03:54:03.264Z,1006.09
2022-11-08T03:55:03.267Z,1006.09
2022-11-08T03:56:03.233Z,1006.07
2022-11-08T03:57:03.223Z,1006.07
2022-11-08T03:58:03.188Z,1006.11
2022-11-08T03:59:03.253Z,1006.07
2022-11-08T04:00:03.241Z,1006.06
2022-11-08T04:01:03.246Z,1006.07
2022-11-08T04:02:04.490Z,1006.03
2022-11-08T04:03:03.113Z,1006.06
2022-11-08T04:04:04.206Z,1006.06
2022-11-08T04:05:04.108Z,1006.04
2022-11-08T04:06:03.154Z,1006.06
2022-11-08T04:07:03.153Z,1006.03
2022-11-08T04:08:03.102Z,1006.02
2022-11-08T04:09:03.053Z,1005.99
2022-11-08T04:10:03.042Z,1005.97
2022-11-08T04:11:03.074Z,1005.95
2022-11-08T04:12:03.030Z,1005.97
2022-11-08T04:13:03.965Z,1005.97
2022-11-08T04:14:02.970Z,1005.99
2022-11-08T04:15:03.977Z,1006.00
2022-11-08T04:16:03.036Z,1006.05
2022-11-08T04:17:02.953Z,1006.07
2022-11-08T04:18:02.953Z,1006.03
2022-11-08T04:19:02.947Z,1006.02
2022-11-08T04:20:03.063Z,1006.03
2022-11-08T04:21:02.931Z,1006.06
2022-11-08T04:22:02.865Z,1006.02
2022-11-08T04:23:02.928Z,1006.00
2022-11-08T04:24:02.865Z,1005.99
2022-11-08T04:25:02.852Z,1006.00
2022-11-08T04:26:03.250Z,1006.01
2022-11-08T04:27:04.044Z,1005.99
2022-11-08T04:28:02.825Z,1006.00
2022-11-08T04:29:02.775Z,1006.02
2022-11-08T04:30:02.816Z,1006.04
2022-11-08T04:31:02.840Z,1005.98
2022-11-08T04:32:02.776Z,1005.99
2022-11-08T04:33:02.809Z,1006.00
2022-11-08T04:34:02.771Z,1005.94
2022-11-08T04:35:02.761Z,1005.92
2022-11-08T04:36:02.810Z,1005.95
2022-11-08T04:37:02.711Z,1005.95
2022-11-08T04:38:02.700Z,1005.99
2022-11-08T04:39:02.660Z,1006.00
2022-11-08T04:40:02.781Z,1005.98
2022-11-08T04:41:02.672Z,1006.01
2022-11-08T04:42:02.827Z,1005.99
2022-11-08T04:43:02.649Z,1005.99
2022-11-08T04:44:02.630Z,1005.97
2022-11-08T04:45:02.632Z,1005.96
2022-11-08T04:46:02.580Z,1005.92
2022-11-08T04:47:02.591Z,1005.93
2022-11-08T04:48:02.571Z,1005.92
2022-11-08T04:49:02.567Z,1005.94
2022-11-08T04:50:02.545Z,1005.94
2022-11-08T04:51:03.284Z,1005.90
2022-11-08T04:52:02.497Z,1005.90
2022-11-08T04:53:02.531Z,1005.88
2022-11-08T04:54:02.493Z,1005.85
2022-11-08T04:55:02.501Z,1005.88
2022-11-08T04:56:02.422Z,1005.88
2022-11-08T04:57:02.643Z,1005.84
2022-11-08T04:58:02.435Z,1005.87
2022-11-08T04:59:02.453Z,1005.90
2022-11-08T05:00:02.406Z,1005.94
2022-11-08T05:01:02.447Z,1005.95
2022-11-08T05:02:02.573Z,1005.93
2022-11-08T05:03:02.356Z,1005.92
2022-11-08T05:04:02.438Z,1005.94
2022-11-08T05:05:02.406Z,1005.90
2022-11-08T05:06:02.306Z,1005.84
2022-11-08T05:07:02.366Z,1005.85
2022-11-08T05:08:03.248Z,1005.87
2022-11-08T05:09:02.334Z,1005.87
2022-11-08T05:10:02.864Z,1005.87
2022-11-08T05:11:02.327Z,1005.88
2022-11-08T05:12:03.236Z,1005.83
2022-11-08T05:13:02.245Z,1005.79
2022-11-08T05:14:02.246Z,1005.80
2022-11-08T05:15:02.240Z,1005.81
2022-11-08T05:16:02.245Z,1005.80
2022-11-08T05:17:03.346Z,1005.81
2022-11-08T05:18:02.677Z,1005.79
2022-11-08T05:19:02.135Z,1005.74
2022-11-08T05:20:02.343Z,1005.71
2022-11-08T05:21:02.147Z,1005.77
2022-11-08T05:22:02.167Z,1005.78
2022-11-08T05:23:02.171Z,1005.77
2022-11-08T05:24:02.139Z,1005.76
2022-11-08T05:25:02.079Z,1005.76
2022-11-08T05:26:02.104Z,1005.78
2022-11-08T05:27:03.521Z,1005.72
2022-11-08T05:28:02.138Z,1005.68
2022-11-08T05:29:02.069Z,1005.72
2022-11-08T05:30:03.121Z,1005.72
2022-11-08T05:31:02.646Z,1005.73
2022-11-08T05:32:02.071Z,1005.72
2022-11-08T05:33:02.010Z,1005.71
2022-11-08T05:34:01.947Z,1005.75
2022-11-08T05:35:03.046Z,1005.75
2022-11-08T05:36:05.633Z,1005.70
2022-11-08T05:37:02.582Z,1005.70
2022-11-08T05:38:01.928Z,1005.70
2022-11-08T05:39:01.982Z,1005.68
2022-11-08T05:40:01.991Z,1005.70
2022-11-08T05:41:02.220Z,1005.73
2022-11-08T05:42:01.908Z,1005.77
2022-11-08T05:43:01.997Z,1005.78
2022-11-08T05:44:02.806Z,1005.70
2022-11-08T05:45:05.236Z,1005.73
2022-11-08T05:46:03.761Z,1005.73
2022-11-08T05:47:01.838Z,1005.70
2022-11-08T05:48:02.710Z,1005.74
2022-11-08T05:49:01.794Z,1005.71
2022-11-08T05:50:01.843Z,1005.72
2022-11-08T05:51:01.779Z,1005.64
2022-11-08T05:52:01.725Z,1005.63
2022-11-08T05:53:01.779Z,1005.65
2022-11-08T05:54:01.709Z,1005.70
2022-11-08T05:55:02.064Z,1005.67
2022-11-08T05:56:02.676Z,1005.70
2022-11-08T05:57:02.622Z,1005.70
2022-11-08T05:58:02.474Z,1005.69
2022-11-08T05:59:02.124Z,1005.68
2022-11-08T06:00:01.705Z,1005.69
2022-11-08T06:01:02.558Z,1005.70
2022-11-08T06:02:02.660Z,1005.69
2022-11-08T06:03:01.702Z,1005.73
2022-11-08T06:04:02.038Z,1005.72
2022-11-08T06:05:02.181Z,1005.75
2022-11-08T06:06:01.647Z,1005.73
2022-11-08T06:07:01.609Z,1005.76
2022-11-08T06:08:01.516Z,1005.75
2022-11-08T06:09:01.557Z,1005.72
2022-11-08T06:10:01.522Z,1005.71
2022-11-08T06:11:01.665Z,1005.69
2022-11-08T06:12:01.529Z,1005.73
2022-11-08T06:13:01.790Z,1005.69
2022-11-08T06:14:01.560Z,1005.70
2022-11-08T06:15:01.438Z,1005.70
2022-11-08T06:16:01.465Z,1005.70
2022-11-08T06:17:01.777Z,1005.69
2022-11-08T06:18:01.388Z,1005.69
2022-11-08T06:19:01.403Z,1005.67
2022-11-08T06:20:01.509Z,1005.66
2022-11-08T06:21:01.369Z,1005.64
2022-11-08T06:22:01.852Z,1005.67
2022-11-08T06:23:01.320Z,1005.69
2022-11-08T06:24:01.307Z,1005.73
2022-11-08T06:25:01.300Z,1005.70
2022-11-08T06:26:01.396Z,1005.69
2022-11-08T06:27:01.383Z,1005.74
2022-11-08T06:28:01.418Z,1005.66
2022-11-08T06:29:01.242Z,1005.71
2022-11-08T06:30:01.337Z,1005.69
2022-11-08T06:31:01.430Z,1005.64
2022-11-08T06:32:02.298Z,1005.65
2022-11-08T06:33:01.239Z,1005.65
2022-11-08T06:34:02.092Z,1005.68
2022-11-08T06:35:01.167Z,1005.65
2022-11-08T06:36:02.415Z,1005.61
2022-11-08T06:37:01.411Z,1005.58
2022-11-08T06:38:05.682Z,1005.55
2022-11-08T06:39:02.205Z,1005.57
2022-11-08T06:40:02.033Z,1005.61
2022-11-08T06:41:01.173Z,1005.58
2022-11-08T06:42:01.256Z,1005.57
2022-11-08T06:43:01.564Z,1005.55
2022-11-08T06:44:01.183Z,1005.53
2022-11-08T06:45:01.463Z,1005.50
2022-11-08T06:46:01.083Z,1005.49
2022-11-08T06:47:01.004Z,1005.49
2022-11-08T06:48:02.114Z,1005.50
2022-11-08T06:49:02.537Z,1005.50
2022-11-08T06:50:01.165Z,1005.48
2022-11-08T06:51:01.076Z,1005.51
2022-11-08T06:52:00.977Z,1005.52
2022-11-08T06:53:01.015Z,1005.49
2022-11-08T06:54:00.997Z,1005.55
2022-11-08T06:55:00.940Z,1005.57
2022-11-08T06:56:00.914Z,1005.52
2022-11-08T06:57:01.002Z,1005.54
2022-11-08T06:58:00.954Z,1005.58
2022-11-08T06:59:00.926Z,1005.61
2022-11-08T07:00:01.661Z,1005.62
2022-11-08T07:01:00.846Z,1005.61
2022-11-08T07:02:01.260Z,1005.57
2022-11-08T07:03:01.970Z,1005.60
2022-11-08T07:04:00.834Z,1005.60
2022-11-08T07:05:00.869Z,1005.58
2022-11-08T07:06:00.770Z,1005.52
2022-11-08T07:07:00.797Z,1005.56
2022-11-08T07:08:00.788Z,1005.58
2022-11-08T07:09:00.925Z,1005.58
2022-11-08T07:10:03.831Z,1005.58
2022-11-08T07:11:01.620Z,1005.57
2022-11-08T07:12:00.699Z,1005.60
2022-11-08T07:13:01.952Z,1005.56
2022-11-08T07:14:00.726Z,1005.63
2022-11-08T07:15:01.742Z,1005.55
2022-11-08T07:16:00.897Z,1005.61
2022-11-08T07:17:00.630Z,1005.59
2022-11-08T07:18:00.668Z,1005.57
2022-11-08T07:19:00.883Z,1005.58
2022-11-08T07:20:01.770Z,1005.63
2022-11-08T07:21:00.827Z,1005.61
2022-11-08T07:22:00.816Z,1005.53
2022-11-08T07:23:01.502Z,1005.54
2022-11-08T07:24:00.600Z,1005.51
2022-11-08T07:25:00.532Z,1005.51
2022-11-08T07:26:00.880Z,1005.53
2022-11-08T07:27:00.534Z,1005.58
2022-11-08T07:28:00.643Z,1005.60
2022-11-08T07:29:00.570Z,1005.59
2022-11-08T07:30:01.357Z,1005.56
2022-11-08T07:31:00.487Z,1005.55
2022-11-08T07:32:00.531Z,1005.61
2022-11-08T07:33:00.430Z,1005.61
2022-11-08T07:34:00.563Z,1005.61
2022-11-08T07:35:00.724Z,1005.62
2022-11-08T07:36:00.453Z,1005.67
2022-11-08T07:37:01.356Z,1005.64
2022-11-08T07:38:00.399Z,1005.65
2022-11-08T07:39:06.317Z,1005.66
2022-11-08T07:40:01.468Z,1005.62
2022-11-08T07:41:01.328Z,1005.64
2022-11-08T07:42:00.303Z,1005.67
2022-11-08T07:43:15.720Z,1005.62
2022-11-08T07:44:01.292Z,1005.65
2022-11-08T07:45:01.428Z,1005.68
2022-11-08T07:46:00.396Z,1005.64
2022-11-08T07:47:01.237Z,1005.67
2022-11-08T07:48:00.249Z,1005.67
2022-11-08T07:49:00.256Z,1005.64
2022-11-08T07:50:01.488Z,1005.66
2022-11-08T07:51:00.212Z,1005.68
2022-11-08T07:52:00.222Z,1005.67
2022-11-08T07:53:00.329Z,1005.59
2022-11-08T07:54:03.025Z,1005.60
2022-11-08T07:55:01.202Z,1005.55
2022-11-08T07:56:00.191Z,1005.55
2022-11-08T07:57:00.112Z,1005.55
2022-11-08T07:58:00.100Z,1005.51
2022-11-08T07:59:00.173Z,1005.52
2022-11-08T08:00:03.610Z,1005.52
2022-11-08T08:01:01.559Z,1005.50
2022-11-08T08:02:00.317Z,1005.52
2022-11-08T08:03:00.996Z,1005.49
2022-11-08T08:04:00.034Z,1005.48
2022-11-08T08:05:00.067Z,1005.47
2022-11-08T08:06:01.460Z,1005.47
2022-11-08T08:07:00.984Z,1005.43
2022-11-08T08:08:00.754Z,1005.41
2022-11-08T08:09:00.124Z,1005.43
2022-11-08T08:10:00.008Z,1005.43
2022-11-08T08:11:00.987Z,1005.39
2022-11-08T08:12:00.879Z,1005.40
2022-11-08T08:12:59.935Z,1005.38
2022-11-08T08:13:59.935Z,1005.37
2022-11-08T08:15:00.461Z,1005.37
2022-11-08T08:16:00.988Z,1005.37
2022-11-08T08:17:00.184Z,1005.36
2022-11-08T08:17:59.874Z,1005.39
2022-11-08T08:19:00.263Z,1005.36
2022-11-08T08:19:59.843Z,1005.39
2022-11-08T08:21:00.173Z,1005.36
2022-11-08T08:21:59.855Z,1005.31
2022-11-08T08:23:00.760Z,1005.31
2022-11-08T08:23:59.775Z,1005.33
2022-11-08T08:25:03.269Z,1005.32
2022-11-08T08:26:00.210Z,1005.33
2022-11-08T08:27:00.235Z,1005.32
2022-11-08T08:27:59.765Z,1005.28
2022-11-08T08:28:59.864Z,1005.31
2022-11-08T08:29:59.824Z,1005.30
2022-11-08T08:30:59.927Z,1005.27
2022-11-08T08:31:59.859Z,1005.25
2022-11-08T08:33:26.444Z,1005.22
2022-11-08T08:34:00.706Z,1005.21
2022-11-08T08:34:59.623Z,1005.20
2022-11-08T08:35:59.606Z,1005.13
2022-11-08T08:37:00.519Z,1005.19
2022-11-08T08:38:00.431Z,1005.17
2022-11-08T08:38:59.585Z,1005.12
2022-11-08T08:39:59.637Z,1005.18
2022-11-08T08:40:59.586Z,1005.20
2022-11-08T08:41:59.536Z,1005.21
2022-11-08T08:43:00.350Z,1005.18
2022-11-08T08:43:59.678Z,1005.24
2022-11-08T08:45:00.271Z,1005.15
2022-11-08T08:45:59.542Z,1005.15
2022-11-08T08:46:59.571Z,1005.07
2022-11-08T08:48:00.499Z,1005.07
2022-11-08T08:48:59.680Z,1005.06
2022-11-08T08:50:00.361Z,1005.06
2022-11-08T08:51:00.372Z,1005.03
2022-11-08T08:51:59.460Z,1005.06
2022-11-08T08:52:59.643Z,1005.05
2022-11-08T08:53:59.498Z,1005.07
2022-11-08T08:54:59.440Z,1005.00
2022-11-08T08:55:59.381Z,1004.99
2022-11-08T08:56:59.411Z,1004.97
2022-11-08T08:57:59.399Z,1004.92
2022-11-08T09:02:00.285Z,1004.91
2022-11-08T09:02:59.425Z,1004.93
2022-11-08T09:04:00.500Z,1004.94
2022-11-08T09:05:00.241Z,1004.95
2022-11-08T09:05:59.272Z,1004.94
2022-11-08T09:06:59.314Z,1004.91
2022-11-08T09:07:59.284Z,1004.90
2022-11-08T09:09:00.013Z,1004.97
2022-11-08T09:10:00.208Z,1004.95
2022-11-08T09:10:59.315Z,1004.92
2022-11-08T09:11:59.176Z,1004.91
2022-11-08T09:12:59.955Z,1004.93
2022-11-08T09:13:59.153Z,1004.88
2022-11-08T09:14:59.132Z,1004.93
2022-11-08T09:16:00.090Z,1004.94
2022-11-08T09:16:59.087Z,1004.90
2022-11-08T09:17:59.106Z,1004.85
2022-11-08T09:18:59.179Z,1004.83
2022-11-08T09:19:59.268Z,1004.82
2022-11-08T09:20:59.886Z,1004.80
2022-11-08T09:21:59.148Z,1004.80
2022-11-08T09:22:59.008Z,1004.75
2022-11-08T09:23:59.160Z,1004.71
2022-11-08T09:24:59.077Z,1004.78
2022-11-08T09:25:58.995Z,1004.78
2022-11-08T09:26:58.958Z,1004.70
2022-11-08T09:27:59.098Z,1004.66
2022-11-08T09:29:00.149Z,1004.67
2022-11-08T09:29:58.965Z,1004.67
2022-11-08T09:30:59.056Z,1004.70
2022-11-08T09:31:59.047Z,1004.69
2022-11-08T09:33:01.615Z,1004.60
2022-11-08T09:33:58.944Z,1004.56
2022-11-08T09:34:58.902Z,1004.52
2022-11-08T09:35:59.156Z,1004.60
2022-11-08T09:36:58.977Z,1004.59
2022-11-08T09:37:58.791Z,1004.65
2022-11-08T09:38:59.039Z,1004.65
2022-11-08T09:39:58.820Z,1004.64
2022-11-08T09:40:59.443Z,1004.65
2022-11-08T09:41:58.781Z,1004.63
2022-11-08T09:42:58.742Z,1004.68
2022-11-08T09:43:59.307Z,1004.69
2022-11-08T09:45:00.339Z,1004.64
2022-11-08T09:45:58.713Z,1004.63
2022-11-08T09:46:58.712Z,1004.56
2022-11-08T09:47:58.735Z,1004.58
2022-11-08T09:48:58.775Z,1004.52
2022-11-08T09:49:58.710Z,1004.57
2022-11-08T09:50:58.784Z,1004.61
2022-11-08T09:51:59.162Z,1004.61
2022-11-08T09:52:59.373Z,1004.61
2022-11-08T09:53:58.695Z,1004.61
2022-11-08T09:54:58.679Z,1004.64
2022-11-08T09:55:59.603Z,1004.60
2022-11-08T09:56:58.594Z,1004.58
2022-11-08T09:57:58.546Z,1004.57
2022-11-08T09:58:58.526Z,1004.52
2022-11-08T09:59:58.613Z,1004.55
2022-11-08T10:00:58.862Z,1004.53
2022-11-08T10:01:58.935Z,1004.50
2022-11-08T10:02:58.545Z,1004.50
2022-11-08T10:03:58.463Z,1004.49
2022-11-08T10:04:58.613Z,1004.55
2022-11-08T10:05:58.489Z,1004.50
2022-11-08T10:07:02.495Z,1004.48
2022-11-08T10:07:59.470Z,1004.51
2022-11-08T10:08:58.463Z,1004.52
2022-11-08T10:09:58.578Z,1004.49
2022-11-08T10:10:58.417Z,1004.49
2022-11-08T10:11:58.602Z,1004.42
2022-11-08T10:12:58.372Z,1004.42
2022-11-08T10:13:58.365Z,1004.39
2022-11-08T10:14:58.439Z,1004.37
2022-11-08T10:15:58.342Z,1004.39
2022-11-08T10:16:58.332Z,1004.42
2022-11-08T10:17:59.539Z,1004.45
2022-11-08T10:18:58.414Z,1004.40
2022-11-08T10:20:02.329Z,1004.41
2022-11-08T10:20:59.246Z,1004.37
2022-11-08T10:21:58.214Z,1004.32
2022-11-08T10:22:58.260Z,1004.33
2022-11-08T10:23:58.191Z,1004.35
2022-11-08T10:24:58.181Z,1004.38
2022-11-08T10:25:58.276Z,1004.33
2022-11-08T10:26:59.166Z,1004.33
2022-11-08T10:27:58.282Z,1004.33
2022-11-08T10:28:58.152Z,1004.28
2022-11-08T10:29:58.211Z,1004.31
2022-11-08T10:30:58.139Z,1004.30
2022-11-08T10:31:58.154Z,1004.31
2022-11-08T10:32:59.127Z,1004.29
2022-11-08T10:33:58.179Z,1004.27
2022-11-08T10:34:58.091Z,1004.28
2022-11-08T10:36:02.209Z,1004.19
2022-11-08T10:36:58.055Z,1004.20
2022-11-08T10:37:59.026Z,1004.22
2022-11-08T10:38:59.051Z,1004.18
2022-11-08T10:39:58.233Z,1004.21
2022-11-08T10:40:58.219Z,1004.24
2022-11-08T10:41:57.975Z,1004.18
2022-11-08T10:42:58.238Z,1004.24
2022-11-08T10:43:59.088Z,1004.14
2022-11-08T10:44:57.938Z,1004.16
2022-11-08T10:45:58.228Z,1004.19
2022-11-08T10:46:58.800Z,1004.15
2022-11-08T10:47:57.920Z,1004.13
2022-11-08T10:48:57.920Z,1004.11
2022-11-08T10:50:03.397Z,1004.13
2022-11-08T10:50:59.256Z,1004.10
2022-11-08T10:51:57.912Z,1004.07
2022-11-08T10:52:57.934Z,1004.06
2022-11-08T10:53:58.013Z,1004.05
2022-11-08T10:54:57.994Z,1003.91
2022-11-08T10:55:57.816Z,1003.95
2022-11-08T10:56:57.913Z,1003.86
2022-11-08T10:57:57.999Z,1003.86
2022-11-08T10:58:58.780Z,1003.85
2022-11-08T10:59:58.572Z,1003.84
2022-11-08T11:00:58.190Z,1003.83
2022-11-08T11:01:57.780Z,1003.77
2022-11-08T11:02:57.776Z,1003.79
2022-11-08T11:03:58.706Z,1003.77
2022-11-08T11:04:57.678Z,1003.71
2022-11-08T11:05:57.708Z,1003.67
2022-11-08T11:06:58.657Z,1003.73
2022-11-08T11:07:59.213Z,1003.68
2022-11-08T11:08:57.647Z,1003.65
2022-11-08T11:09:57.647Z,1003.64
2022-11-08T11:10:57.615Z,1003.63
2022-11-08T11:11:57.567Z,1003.67
2022-11-08T11:12:58.350Z,1003.64
2022-11-08T11:13:58.314Z,1003.62
2022-11-08T11:14:57.570Z,1003.58
2022-11-08T11:15:57.575Z,1003.56
2022-11-08T11:17:06.454Z,1003.64
2022-11-08T11:17:57.537Z,1003.56
2022-11-08T11:18:57.536Z,1003.56
2022-11-08T11:19:57.757Z,1003.54
2022-11-08T11:20:57.677Z,1003.55
2022-11-08T11:21:57.453Z,1003.55
2022-11-08T11:22:58.410Z,1003.53
2022-11-08T11:23:57.428Z,1003.50
2022-11-08T11:24:58.222Z,1003.50
2022-11-08T11:25:57.439Z,1003.44
2022-11-08T11:26:57.438Z,1003.50
2022-11-08T11:27:57.459Z,1003.51
2022-11-08T11:28:57.399Z,1003.50
2022-11-08T11:29:57.369Z,1003.49
2022-11-08T11:30:57.371Z,1003.45
2022-11-08T11:31:57.530Z,1003.47
2022-11-08T11:32:57.580Z,1003.45
2022-11-08T11:33:57.368Z,1003.46
2022-11-08T11:34:57.396Z,1003.44
2022-11-08T11:35:57.288Z,1003.41
2022-11-08T11:36:57.463Z,1003.39
2022-11-08T11:38:07.155Z,1003.39
2022-11-08T11:38:57.281Z,1003.43
2022-11-08T11:39:57.201Z,1003.47
2022-11-08T11:40:57.306Z,1003.36
2022-11-08T11:41:58.133Z,1003.39
2022-11-08T11:42:58.034Z,1003.39
2022-11-08T11:43:57.179Z,1003.33
2022-11-08T11:44:57.151Z,1003.36
2022-11-08T11:45:58.161Z,1003.36
2022-11-08T11:46:57.145Z,1003.37
2022-11-08T11:47:57.122Z,1003.36
2022-11-08T11:48:57.264Z,1003.30
2022-11-08T11:49:57.072Z,1003.32
2022-11-08T11:50:57.107Z,1003.25
2022-11-08T11:51:57.177Z,1003.31
2022-11-08T11:52:58.085Z,1003.28
2022-11-08T11:53:57.049Z,1003.30
2022-11-08T11:54:57.035Z,1003.23
2022-11-08T11:55:56.983Z,1003.32
2022-11-08T11:56:58.977Z,1003.23
2022-11-08T11:57:57.401Z,1003.27
2022-11-08T11:58:56.975Z,1003.25
2022-11-08T11:59:57.029Z,1003.23
2022-11-08T12:00:56.937Z,1003.25
2022-11-08T12:01:56.979Z,1003.22
2022-11-08T12:02:56.909Z,1003.21
2022-11-08T12:03:56.897Z,1003.24
2022-11-08T12:04:57.318Z,1003.27
2022-11-08T12:05:57.870Z,1003.23
2022-11-08T12:07:00.813Z,1003.27
2022-11-08T12:07:57.959Z,1003.27